sensor_id;sensor_type;location;lat;lon;timestamp;P1;durP1;ratioP1;P2;durP2;ratioP2
23181;SDS011;11759;51.282;6.642;2022-08-19T00:01:58;18.05;;;11.57;;
23181;SDS011;11759;51.282;6.642;2022-08-19T00:04:27;16.30;;;11.90;;
23181;SDS011;11759;51.282;6.642;2022-08-19T00:06:55;17.75;;;11.48;;
23181;SDS011;11759;51.282;6.642;2022-08-19T00:09:22;15.23;;;11.18;;
23181;SDS011;11759;51.282;6.642;2022-08-19T00:11:50;15.68;;;12.55;;
23181;SDS011;11759;51.282;6.642;2022-08-19T00:14:18;15.95;;;11.73;;
23181;SDS011;11759;51.282;6.642;2022-08-19T00:16:45;20.02;;;12.00;;
23181;SDS011;11759;51.282;6.642;2022-08-19T00:19:14;17.13;;;11.77;;
23181;SDS011;11759;51.282;6.642;2022-08-19T00:21:41;17.63;;;11.93;;
23181;SDS011;11759;51.282;6.642;2022-08-19T00:24:09;14.93;;;11.05;;
23181;SDS011;11759;51.282;6.642;2022-08-19T00:26:37;19.77;;;12.35;;
23181;SDS011;11759;51.282;6.642;2022-08-19T00:29:04;16.95;;;11.68;;
23181;SDS011;11759;51.282;6.642;2022-08-19T00:31:32;17.85;;;12.13;;
23181;SDS011;11759;51.282;6.642;2022-08-19T00:33:59;16.05;;;11.77;;
23181;SDS011;11759;51.282;6.642;2022-08-19T00:36:26;18.92;;;11.88;;
23181;SDS011;11759;51.282;6.642;2022-08-19T00:38:54;19.50;;;12.38;;
23181;SDS011;11759;51.282;6.642;2022-08-19T00:41:21;17.23;;;13.43;;
23181;SDS011;11759;51.282;6.642;2022-08-19T00:46:35;19.55;;;13.73;;
23181;SDS011;11759;51.282;6.642;2022-08-19T00:49:14;20.45;;;14.63;;
23181;SDS011;11759;51.282;6.642;2022-08-19T00:51:44;17.00;;;13.65;;
23181;SDS011;11759;51.282;6.642;2022-08-19T00:54:12;18.75;;;13.60;;
23181;SDS011;11759;51.282;6.642;2022-08-19T00:56:38;20.42;;;14.90;;
23181;SDS011;11759;51.282;6.642;2022-08-19T00:59:07;19.50;;;14.40;;
23181;SDS011;11759;51.282;6.642;2022-08-19T01:01:39;17.45;;;13.95;;
23181;SDS011;11759;51.282;6.642;2022-08-19T01:04:07;21.13;;;13.77;;
23181;SDS011;11759;51.282;6.642;2022-08-19T01:06:35;22.50;;;15.85;;
23181;SDS011;11759;51.282;6.642;2022-08-19T01:09:03;22.10;;;16.00;;
23181;SDS011;11759;51.282;6.642;2022-08-19T01:11:31;20.45;;;15.02;;
23181;SDS011;11759;51.282;6.642;2022-08-19T01:14:01;20.35;;;15.10;;
23181;SDS011;11759;51.282;6.642;2022-08-19T01:16:28;27.95;;;15.68;;
23181;SDS011;11759;51.282;6.642;2022-08-19T01:18:56;21.25;;;15.40;;
23181;SDS011;11759;51.282;6.642;2022-08-19T01:24:00;20.77;;;15.32;;
23181;SDS011;11759;51.282;6.642;2022-08-19T01:26:27;24.35;;;17.08;;
23181;SDS011;11759;51.282;6.642;2022-08-19T01:28:57;18.77;;;15.85;;
23181;SDS011;11759;51.282;6.642;2022-08-19T01:31:27;20.58;;;15.68;;
23181;SDS011;11759;51.282;6.642;2022-08-19T01:33:58;24.75;;;16.15;;
23181;SDS011;11759;51.282;6.642;2022-08-19T01:38:56;23.02;;;16.67;;
23181;SDS011;11759;51.282;6.642;2022-08-19T01:41:24;23.58;;;16.27;;
23181;SDS011;11759;51.282;6.642;2022-08-19T01:43:51;23.35;;;17.45;;
23181;SDS011;11759;51.282;6.642;2022-08-19T01:46:39;29.92;;;17.90;;
23181;SDS011;11759;51.282;6.642;2022-08-19T01:49:06;24.83;;;17.63;;
23181;SDS011;11759;51.282;6.642;2022-08-19T01:51:34;29.52;;;19.38;;
23181;SDS011;11759;51.282;6.642;2022-08-19T01:56:32;33.92;;;21.70;;
23181;SDS011;11759;51.282;6.642;2022-08-19T01:59:00;32.33;;;21.83;;
23181;SDS011;11759;51.282;6.642;2022-08-19T02:01:29;29.50;;;21.45;;
23181;SDS011;11759;51.282;6.642;2022-08-19T02:04:01;31.42;;;22.00;;
23181;SDS011;11759;51.282;6.642;2022-08-19T02:06:28;32.08;;;20.85;;
23181;SDS011;11759;51.282;6.642;2022-08-19T02:08:54;27.55;;;20.75;;
23181;SDS011;11759;51.282;6.642;2022-08-19T02:11:32;31.95;;;22.00;;
23181;SDS011;11759;51.282;6.642;2022-08-19T02:14:00;31.13;;;20.73;;
23181;SDS011;11759;51.282;6.642;2022-08-19T02:16:28;28.60;;;19.80;;
23181;SDS011;11759;51.282;6.642;2022-08-19T02:18:56;25.92;;;19.38;;
23181;SDS011;11759;51.282;6.642;2022-08-19T02:21:26;29.10;;;20.80;;
23181;SDS011;11759;51.282;6.642;2022-08-19T02:23:53;33.25;;;20.98;;
23181;SDS011;11759;51.282;6.642;2022-08-19T02:26:21;34.08;;;22.15;;
23181;SDS011;11759;51.282;6.642;2022-08-19T02:28:48;35.53;;;23.42;;
23181;SDS011;11759;51.282;6.642;2022-08-19T02:31:19;36.50;;;24.80;;
23181;SDS011;11759;51.282;6.642;2022-08-19T02:33:47;34.28;;;24.30;;
23181;SDS011;11759;51.282;6.642;2022-08-19T02:36:15;40.78;;;23.52;;
23181;SDS011;11759;51.282;6.642;2022-08-19T02:38:46;34.75;;;23.23;;
23181;SDS011;11759;51.282;6.642;2022-08-19T02:41:30;33.97;;;22.58;;
23181;SDS011;11759;51.282;6.642;2022-08-19T02:43:58;34.75;;;23.63;;
23181;SDS011;11759;51.282;6.642;2022-08-19T02:46:47;40.92;;;26.40;;
23181;SDS011;11759;51.282;6.642;2022-08-19T02:49:16;37.30;;;26.02;;
23181;SDS011;11759;51.282;6.642;2022-08-19T02:51:45;38.17;;;26.63;;
23181;SDS011;11759;51.282;6.642;2022-08-19T02:54:12;42.65;;;28.10;;
23181;SDS011;11759;51.282;6.642;2022-08-19T02:56:40;42.92;;;29.30;;
23181;SDS011;11759;51.282;6.642;2022-08-19T02:59:08;46.30;;;29.35;;
23181;SDS011;11759;51.282;6.642;2022-08-19T03:01:37;49.92;;;33.58;;
23181;SDS011;11759;51.282;6.642;2022-08-19T03:04:07;53.15;;;35.15;;
23181;SDS011;11759;51.282;6.642;2022-08-19T03:06:36;52.00;;;34.88;;
23181;SDS011;11759;51.282;6.642;2022-08-19T03:09:03;57.20;;;36.50;;
23181;SDS011;11759;51.282;6.642;2022-08-19T03:11:31;66.82;;;39.22;;
23181;SDS011;11759;51.282;6.642;2022-08-19T03:13:58;60.90;;;38.63;;
23181;SDS011;11759;51.282;6.642;2022-08-19T03:16:26;62.60;;;40.20;;
23181;SDS011;11759;51.282;6.642;2022-08-19T03:18:58;65.32;;;42.35;;
23181;SDS011;11759;51.282;6.642;2022-08-19T03:21:28;67.90;;;42.50;;
23181;SDS011;11759;51.282;6.642;2022-08-19T03:23:57;83.20;;;48.75;;
23181;SDS011;11759;51.282;6.642;2022-08-19T03:26:25;90.10;;;50.53;;
23181;SDS011;11759;51.282;6.642;2022-08-19T03:28:52;88.75;;;52.55;;
23181;SDS011;11759;51.282;6.642;2022-08-19T03:34:12;88.68;;;51.17;;
23181;SDS011;11759;51.282;6.642;2022-08-19T03:36:40;86.18;;;51.08;;
23181;SDS011;11759;51.282;6.642;2022-08-19T03:39:07;89.95;;;53.25;;
23181;SDS011;11759;51.282;6.642;2022-08-19T03:41:39;96.20;;;54.55;;
23181;SDS011;11759;51.282;6.642;2022-08-19T03:44:10;85.32;;;51.13;;
23181;SDS011;11759;51.282;6.642;2022-08-19T03:46:44;98.63;;;55.65;;
23181;SDS011;11759;51.282;6.642;2022-08-19T03:49:12;83.55;;;51.50;;
23181;SDS011;11759;51.282;6.642;2022-08-19T03:51:40;80.38;;;49.90;;
23181;SDS011;11759;51.282;6.642;2022-08-19T03:54:09;80.80;;;49.80;;
23181;SDS011;11759;51.282;6.642;2022-08-19T03:56:37;82.82;;;50.35;;
23181;SDS011;11759;51.282;6.642;2022-08-19T03:59:06;84.55;;;50.03;;
23181;SDS011;11759;51.282;6.642;2022-08-19T04:01:34;87.05;;;53.15;;
23181;SDS011;11759;51.282;6.642;2022-08-19T04:04:01;82.10;;;51.15;;
23181;SDS011;11759;51.282;6.642;2022-08-19T04:06:31;88.82;;;51.80;;
23181;SDS011;11759;51.282;6.642;2022-08-19T04:09:00;87.03;;;54.03;;
23181;SDS011;11759;51.282;6.642;2022-08-19T04:11:30;88.43;;;53.53;;
23181;SDS011;11759;51.282;6.642;2022-08-19T04:14:10;87.70;;;54.17;;
23181;SDS011;11759;51.282;6.642;2022-08-19T04:16:38;90.22;;;52.97;;
23181;SDS011;11759;51.282;6.642;2022-08-19T04:19:05;84.35;;;51.63;;
23181;SDS011;11759;51.282;6.642;2022-08-19T04:21:33;81.38;;;50.17;;
23181;SDS011;11759;51.282;6.642;2022-08-19T04:23:59;85.50;;;51.35;;
23181;SDS011;11759;51.282;6.642;2022-08-19T04:26:31;89.20;;;52.55;;
23181;SDS011;11759;51.282;6.642;2022-08-19T04:29:00;89.55;;;53.35;;
23181;SDS011;11759;51.282;6.642;2022-08-19T04:31:30;84.35;;;51.58;;
23181;SDS011;11759;51.282;6.642;2022-08-19T04:33:59;89.65;;;51.88;;
23181;SDS011;11759;51.282;6.642;2022-08-19T04:36:27;91.47;;;54.85;;
23181;SDS011;11759;51.282;6.642;2022-08-19T04:38:57;99.18;;;56.63;;
23181;SDS011;11759;51.282;6.642;2022-08-19T04:41:25;104.03;;;59.10;;
23181;SDS011;11759;51.282;6.642;2022-08-19T04:44:10;105.55;;;61.30;;
23181;SDS011;11759;51.282;6.642;2022-08-19T04:46:37;105.88;;;60.40;;
23181;SDS011;11759;51.282;6.642;2022-08-19T04:49:06;111.43;;;63.40;;
23181;SDS011;11759;51.282;6.642;2022-08-19T04:51:40;104.30;;;63.05;;
23181;SDS011;11759;51.282;6.642;2022-08-19T04:54:08;110.57;;;62.67;;
23181;SDS011;11759;51.282;6.642;2022-08-19T04:56:35;110.65;;;64.18;;
23181;SDS011;11759;51.282;6.642;2022-08-19T04:59:01;109.88;;;64.43;;
23181;SDS011;11759;51.282;6.642;2022-08-19T05:01:31;110.18;;;62.88;;
23181;SDS011;11759;51.282;6.642;2022-08-19T05:03:59;115.90;;;65.30;;
23181;SDS011;11759;51.282;6.642;2022-08-19T05:06:27;107.03;;;62.42;;
23181;SDS011;11759;51.282;6.642;2022-08-19T05:08:55;109.60;;;63.88;;
23181;SDS011;11759;51.282;6.642;2022-08-19T05:11:23;110.80;;;64.13;;
23181;SDS011;11759;51.282;6.642;2022-08-19T05:13:52;109.82;;;62.85;;
23181;SDS011;11759;51.282;6.642;2022-08-19T05:16:20;120.32;;;67.57;;
23181;SDS011;11759;51.282;6.642;2022-08-19T05:18:47;120.35;;;66.43;;
23181;SDS011;11759;51.282;6.642;2022-08-19T05:21:32;112.80;;;64.38;;
23181;SDS011;11759;51.282;6.642;2022-08-19T05:24:19;110.03;;;63.88;;
23181;SDS011;11759;51.282;6.642;2022-08-19T05:26:47;108.95;;;64.60;;
23181;SDS011;11759;51.282;6.642;2022-08-19T05:29:15;106.70;;;63.40;;
23181;SDS011;11759;51.282;6.642;2022-08-19T05:31:48;109.80;;;63.30;;
23181;SDS011;11759;51.282;6.642;2022-08-19T05:34:18;101.25;;;63.25;;
23181;SDS011;11759;51.282;6.642;2022-08-19T05:36:51;101.22;;;60.78;;
23181;SDS011;11759;51.282;6.642;2022-08-19T05:39:24;99.38;;;61.78;;
23181;SDS011;11759;51.282;6.642;2022-08-19T05:41:57;99.28;;;61.55;;
23181;SDS011;11759;51.282;6.642;2022-08-19T05:44:26;99.22;;;60.58;;
23181;SDS011;11759;51.282;6.642;2022-08-19T05:47:01;93.95;;;57.17;;
23181;SDS011;11759;51.282;6.642;2022-08-19T05:51:55;93.28;;;58.60;;
23181;SDS011;11759;51.282;6.642;2022-08-19T05:54:22;94.40;;;58.08;;
23181;SDS011;11759;51.282;6.642;2022-08-19T05:56:50;93.47;;;57.40;;
23181;SDS011;11759;51.282;6.642;2022-08-19T05:59:18;91.88;;;58.13;;
23181;SDS011;11759;51.282;6.642;2022-08-19T06:01:50;87.38;;;55.38;;
23181;SDS011;11759;51.282;6.642;2022-08-19T06:04:19;87.70;;;56.72;;
23181;SDS011;11759;51.282;6.642;2022-08-19T06:06:47;96.95;;;57.40;;
23181;SDS011;11759;51.282;6.642;2022-08-19T06:09:16;87.90;;;55.17;;
23181;SDS011;11759;51.282;6.642;2022-08-19T06:11:46;85.82;;;53.92;;
23181;SDS011;11759;51.282;6.642;2022-08-19T06:14:17;88.72;;;56.80;;
23181;SDS011;11759;51.282;6.642;2022-08-19T06:16:53;79.30;;;51.28;;
23181;SDS011;11759;51.282;6.642;2022-08-19T06:19:20;80.90;;;52.42;;
23181;SDS011;11759;51.282;6.642;2022-08-19T06:21:48;81.63;;;53.17;;
23181;SDS011;11759;51.282;6.642;2022-08-19T06:24:18;74.60;;;50.85;;
23181;SDS011;11759;51.282;6.642;2022-08-19T06:26:47;80.78;;;49.45;;
23181;SDS011;11759;51.282;6.642;2022-08-19T06:29:16;76.80;;;50.78;;
23181;SDS011;11759;51.282;6.642;2022-08-19T06:31:50;67.38;;;46.85;;
23181;SDS011;11759;51.282;6.642;2022-08-19T06:34:19;68.22;;;44.95;;
23181;SDS011;11759;51.282;6.642;2022-08-19T06:36:47;66.68;;;43.72;;
23181;SDS011;11759;51.282;6.642;2022-08-19T06:39:16;63.90;;;42.55;;
23181;SDS011;11759;51.282;6.642;2022-08-19T06:41:47;64.28;;;43.53;;
23181;SDS011;11759;51.282;6.642;2022-08-19T06:44:19;60.15;;;41.60;;
23181;SDS011;11759;51.282;6.642;2022-08-19T06:46:47;62.53;;;41.28;;
23181;SDS011;11759;51.282;6.642;2022-08-19T06:49:20;58.97;;;39.63;;
23181;SDS011;11759;51.282;6.642;2022-08-19T06:51:48;63.25;;;39.88;;
23181;SDS011;11759;51.282;6.642;2022-08-19T06:54:17;59.75;;;38.85;;
23181;SDS011;11759;51.282;6.642;2022-08-19T06:56:45;57.95;;;37.92;;
23181;SDS011;11759;51.282;6.642;2022-08-19T06:59:13;58.83;;;37.67;;
23181;SDS011;11759;51.282;6.642;2022-08-19T07:01:42;55.33;;;36.40;;
23181;SDS011;11759;51.282;6.642;2022-08-19T07:04:15;49.20;;;34.63;;
23181;SDS011;11759;51.282;6.642;2022-08-19T07:06:44;53.60;;;34.65;;
23181;SDS011;11759;51.282;6.642;2022-08-19T07:09:20;50.22;;;32.50;;
23181;SDS011;11759;51.282;6.642;2022-08-19T07:11:50;46.38;;;31.05;;
23181;SDS011;11759;51.282;6.642;2022-08-19T07:14:19;43.38;;;30.50;;
23181;SDS011;11759;51.282;6.642;2022-08-19T07:16:48;51.10;;;31.88;;
23181;SDS011;11759;51.282;6.642;2022-08-19T07:19:17;41.40;;;30.85;;
23181;SDS011;11759;51.282;6.642;2022-08-19T07:21:47;41.53;;;30.70;;
23181;SDS011;11759;51.282;6.642;2022-08-19T07:24:16;49.78;;;31.20;;
23181;SDS011;11759;51.282;6.642;2022-08-19T07:26:43;48.00;;;31.52;;
23181;SDS011;11759;51.282;6.642;2022-08-19T07:29:10;43.90;;;30.25;;
23181;SDS011;11759;51.282;6.642;2022-08-19T07:31:38;43.03;;;30.08;;
23181;SDS011;11759;51.282;6.642;2022-08-19T07:34:09;42.28;;;31.25;;
23181;SDS011;11759;51.282;6.642;2022-08-19T07:36:39;47.10;;;31.15;;
23181;SDS011;11759;51.282;6.642;2022-08-19T07:39:15;50.10;;;36.35;;
23181;SDS011;11759;51.282;6.642;2022-08-19T07:41:45;55.03;;;37.33;;
23181;SDS011;11759;51.282;6.642;2022-08-19T07:44:13;59.55;;;39.55;;
23181;SDS011;11759;51.282;6.642;2022-08-19T07:46:41;59.92;;;40.58;;
23181;SDS011;11759;51.282;6.642;2022-08-19T07:49:13;60.35;;;40.35;;
23181;SDS011;11759;51.282;6.642;2022-08-19T07:51:46;64.57;;;42.67;;
23181;SDS011;11759;51.282;6.642;2022-08-19T07:54:14;65.40;;;42.70;;
23181;SDS011;11759;51.282;6.642;2022-08-19T07:56:40;72.15;;;45.63;;
23181;SDS011;11759;51.282;6.642;2022-08-19T07:59:07;68.20;;;46.22;;
23181;SDS011;11759;51.282;6.642;2022-08-19T08:01:35;70.88;;;45.22;;
23181;SDS011;11759;51.282;6.642;2022-08-19T08:04:07;71.35;;;44.45;;
23181;SDS011;11759;51.282;6.642;2022-08-19T08:06:52;66.10;;;42.88;;
23181;SDS011;11759;51.282;6.642;2022-08-19T08:09:39;66.10;;;42.83;;
23181;SDS011;11759;51.282;6.642;2022-08-19T08:12:09;67.55;;;41.78;;
23181;SDS011;11759;51.282;6.642;2022-08-19T08:15:00;62.97;;;42.30;;
23181;SDS011;11759;51.282;6.642;2022-08-19T08:17:28;69.18;;;43.78;;
23181;SDS011;11759;51.282;6.642;2022-08-19T08:20:16;72.32;;;46.97;;
23181;SDS011;11759;51.282;6.642;2022-08-19T08:22:46;71.43;;;45.85;;
23181;SDS011;11759;51.282;6.642;2022-08-19T08:25:32;65.95;;;42.47;;
23181;SDS011;11759;51.282;6.642;2022-08-19T08:28:00;67.07;;;44.80;;
23181;SDS011;11759;51.282;6.642;2022-08-19T08:30:28;66.88;;;43.13;;
23181;SDS011;11759;51.282;6.642;2022-08-19T08:32:58;74.20;;;46.03;;
23181;SDS011;11759;51.282;6.642;2022-08-19T08:35:24;76.22;;;46.08;;
23181;SDS011;11759;51.282;6.642;2022-08-19T08:37:53;70.55;;;43.67;;
23181;SDS011;11759;51.282;6.642;2022-08-19T08:43:27;66.85;;;40.15;;
23181;SDS011;11759;51.282;6.642;2022-08-19T08:48:51;67.10;;;44.13;;
23181;SDS011;11759;51.282;6.642;2022-08-19T08:51:44;66.28;;;44.35;;
23181;SDS011;11759;51.282;6.642;2022-08-19T08:54:13;64.03;;;40.60;;
23181;SDS011;11759;51.282;6.642;2022-08-19T08:56:41;66.30;;;42.45;;
23181;SDS011;11759;51.282;6.642;2022-08-19T08:59:17;62.78;;;40.28;;
23181;SDS011;11759;51.282;6.642;2022-08-19T09:01:48;59.00;;;39.58;;
23181;SDS011;11759;51.282;6.642;2022-08-19T09:04:15;55.97;;;39.38;;
23181;SDS011;11759;51.282;6.642;2022-08-19T09:07:08;55.78;;;37.00;;
23181;SDS011;11759;51.282;6.642;2022-08-19T09:09:57;54.72;;;35.42;;
23181;SDS011;11759;51.282;6.642;2022-08-19T09:12:35;51.85;;;33.10;;
23181;SDS011;11759;51.282;6.642;2022-08-19T09:15:09;46.80;;;31.85;;
23181;SDS011;11759;51.282;6.642;2022-08-19T09:17:37;44.58;;;27.58;;
23181;SDS011;11759;51.282;6.642;2022-08-19T09:20:21;41.35;;;27.40;;
23181;SDS011;11759;51.282;6.642;2022-08-19T09:22:51;36.78;;;24.98;;
23181;SDS011;11759;51.282;6.642;2022-08-19T09:25:19;32.88;;;23.20;;
23181;SDS011;11759;51.282;6.642;2022-08-19T09:27:55;31.42;;;21.83;;
23181;SDS011;11759;51.282;6.642;2022-08-19T09:30:32;31.83;;;20.02;;
23181;SDS011;11759;51.282;6.642;2022-08-19T09:33:00;32.67;;;22.63;;
23181;SDS011;11759;51.282;6.642;2022-08-19T09:35:27;33.85;;;20.67;;
23181;SDS011;11759;51.282;6.642;2022-08-19T09:37:56;33.67;;;22.23;;
23181;SDS011;11759;51.282;6.642;2022-08-19T09:40:26;31.30;;;22.50;;
23181;SDS011;11759;51.282;6.642;2022-08-19T09:42:56;28.65;;;21.85;;
23181;SDS011;11759;51.282;6.642;2022-08-19T09:45:23;32.85;;;23.17;;
23181;SDS011;11759;51.282;6.642;2022-08-19T09:47:51;31.20;;;20.38;;
23181;SDS011;11759;51.282;6.642;2022-08-19T09:50:20;29.67;;;19.70;;
23181;SDS011;11759;51.282;6.642;2022-08-19T09:52:48;27.85;;;20.77;;
23181;SDS011;11759;51.282;6.642;2022-08-19T09:55:23;30.73;;;22.65;;
23181;SDS011;11759;51.282;6.642;2022-08-19T09:57:58;26.80;;;19.38;;
23181;SDS011;11759;51.282;6.642;2022-08-19T10:00:26;24.67;;;18.15;;
23181;SDS011;11759;51.282;6.642;2022-08-19T10:02:52;26.98;;;19.15;;
23181;SDS011;11759;51.282;6.642;2022-08-19T10:05:19;24.23;;;18.00;;
23181;SDS011;11759;51.282;6.642;2022-08-19T10:08:07;24.17;;;18.05;;
23181;SDS011;11759;51.282;6.642;2022-08-19T10:10:39;21.52;;;16.17;;
23181;SDS011;11759;51.282;6.642;2022-08-19T10:13:11;22.25;;;13.75;;
23181;SDS011;11759;51.282;6.642;2022-08-19T10:15:38;25.05;;;15.70;;
23181;SDS011;11759;51.282;6.642;2022-08-19T10:18:13;26.42;;;13.73;;
23181;SDS011;11759;51.282;6.642;2022-08-19T10:20:40;21.73;;;15.07;;
23181;SDS011;11759;51.282;6.642;2022-08-19T10:23:08;23.90;;;14.13;;
23181;SDS011;11759;51.282;6.642;2022-08-19T10:25:35;19.85;;;13.23;;
23181;SDS011;11759;51.282;6.642;2022-08-19T10:28:03;20.33;;;13.05;;
23181;SDS011;11759;51.282;6.642;2022-08-19T10:30:36;19.60;;;13.40;;
23181;SDS011;11759;51.282;6.642;2022-08-19T10:33:03;20.35;;;14.50;;
23181;SDS011;11759;51.282;6.642;2022-08-19T10:35:36;18.60;;;13.23;;
23181;SDS011;11759;51.282;6.642;2022-08-19T10:38:22;20.75;;;13.13;;
23181;SDS011;11759;51.282;6.642;2022-08-19T10:40:58;16.58;;;11.85;;
23181;SDS011;11759;51.282;6.642;2022-08-19T10:43:36;16.02;;;10.52;;
23181;SDS011;11759;51.282;6.642;2022-08-19T10:46:05;14.80;;;11.25;;
23181;SDS011;11759;51.282;6.642;2022-08-19T10:48:40;24.50;;;11.70;;
23181;SDS011;11759;51.282;6.642;2022-08-19T10:51:07;16.38;;;10.65;;
23181;SDS011;11759;51.282;6.642;2022-08-19T10:53:53;18.70;;;11.45;;
23181;SDS011;11759;51.282;6.642;2022-08-19T10:56:21;14.60;;;9.55;;
23181;SDS011;11759;51.282;6.642;2022-08-19T10:59:07;14.32;;;10.63;;
23181;SDS011;11759;51.282;6.642;2022-08-19T11:01:33;13.38;;;9.85;;
23181;SDS011;11759;51.282;6.642;2022-08-19T11:04:01;18.88;;;10.55;;
23181;SDS011;11759;51.282;6.642;2022-08-19T11:06:31;17.83;;;9.13;;
23181;SDS011;11759;51.282;6.642;2022-08-19T11:08:58;16.05;;;11.15;;
23181;SDS011;11759;51.282;6.642;2022-08-19T11:11:26;15.95;;;9.68;;
23181;SDS011;11759;51.282;6.642;2022-08-19T11:13:54;16.20;;;10.43;;
23181;SDS011;11759;51.282;6.642;2022-08-19T11:16:22;16.38;;;11.10;;
23181;SDS011;11759;51.282;6.642;2022-08-19T11:18:53;20.27;;;9.93;;
23181;SDS011;11759;51.282;6.642;2022-08-19T11:21:25;17.45;;;11.60;;
23181;SDS011;11759;51.282;6.642;2022-08-19T11:23:55;15.38;;;10.65;;
23181;SDS011;11759;51.282;6.642;2022-08-19T11:26:23;15.50;;;9.90;;
23181;SDS011;11759;51.282;6.642;2022-08-19T11:28:50;17.23;;;13.18;;
23181;SDS011;11759;51.282;6.642;2022-08-19T11:31:21;17.90;;;12.80;;
23181;SDS011;11759;51.282;6.642;2022-08-19T11:33:57;15.68;;;11.98;;
23181;SDS011;11759;51.282;6.642;2022-08-19T11:36:26;15.23;;;10.35;;
23181;SDS011;11759;51.282;6.642;2022-08-19T11:38:52;14.85;;;9.65;;
23181;SDS011;11759;51.282;6.642;2022-08-19T11:41:20;13.75;;;9.07;;
23181;SDS011;11759;51.282;6.642;2022-08-19T11:43:52;11.27;;;8.60;;
23181;SDS011;11759;51.282;6.642;2022-08-19T11:46:21;11.52;;;8.80;;
23181;SDS011;11759;51.282;6.642;2022-08-19T11:48:49;11.95;;;8.13;;
23181;SDS011;11759;51.282;6.642;2022-08-19T11:51:18;15.10;;;8.40;;
23181;SDS011;11759;51.282;6.642;2022-08-19T11:53:48;13.32;;;9.60;;
23181;SDS011;11759;51.282;6.642;2022-08-19T11:56:15;13.60;;;8.57;;
23181;SDS011;11759;51.282;6.642;2022-08-19T11:58:42;13.75;;;8.85;;
23181;SDS011;11759;51.282;6.642;2022-08-19T12:01:13;9.88;;;6.65;;
23181;SDS011;11759;51.282;6.642;2022-08-19T12:03:43;12.05;;;7.03;;
23181;SDS011;11759;51.282;6.642;2022-08-19T12:06:14;9.23;;;6.40;;
23181;SDS011;11759;51.282;6.642;2022-08-19T12:08:43;9.35;;;6.95;;
23181;SDS011;11759;51.282;6.642;2022-08-19T12:11:11;13.95;;;6.45;;
23181;SDS011;11759;51.282;6.642;2022-08-19T12:13:40;7.78;;;6.32;;
23181;SDS011;11759;51.282;6.642;2022-08-19T12:16:10;11.48;;;7.43;;
23181;SDS011;11759;51.282;6.642;2022-08-19T12:18:39;13.25;;;7.65;;
23181;SDS011;11759;51.282;6.642;2022-08-19T12:21:09;7.40;;;5.75;;
23181;SDS011;11759;51.282;6.642;2022-08-19T12:23:37;9.77;;;5.90;;
23181;SDS011;11759;51.282;6.642;2022-08-19T12:26:03;13.05;;;7.03;;
23181;SDS011;11759;51.282;6.642;2022-08-19T12:28:30;12.80;;;7.70;;
23181;SDS011;11759;51.282;6.642;2022-08-19T12:30:57;10.60;;;6.63;;
23181;SDS011;11759;51.282;6.642;2022-08-19T12:33:24;9.85;;;6.38;;
23181;SDS011;11759;51.282;6.642;2022-08-19T12:35:54;10.98;;;6.40;;
23181;SDS011;11759;51.282;6.642;2022-08-19T12:38:21;9.85;;;6.20;;
23181;SDS011;11759;51.282;6.642;2022-08-19T12:40:50;8.90;;;5.85;;
23181;SDS011;11759;51.282;6.642;2022-08-19T12:43:25;9.57;;;5.15;;
23181;SDS011;11759;51.282;6.642;2022-08-19T12:45:52;11.70;;;5.18;;
23181;SDS011;11759;51.282;6.642;2022-08-19T12:48:19;10.90;;;6.03;;
23181;SDS011;11759;51.282;6.642;2022-08-19T12:51:00;8.43;;;5.72;;
23181;SDS011;11759;51.282;6.642;2022-08-19T12:53:28;9.75;;;6.00;;
23181;SDS011;11759;51.282;6.642;2022-08-19T12:55:55;8.82;;;5.72;;
23181;SDS011;11759;51.282;6.642;2022-08-19T12:58:23;9.00;;;5.10;;
23181;SDS011;11759;51.282;6.642;2022-08-19T13:00:52;15.55;;;5.43;;
23181;SDS011;11759;51.282;6.642;2022-08-19T13:03:19;13.27;;;5.55;;
23181;SDS011;11759;51.282;6.642;2022-08-19T13:05:50;14.63;;;6.95;;
23181;SDS011;11759;51.282;6.642;2022-08-19T13:08:17;8.60;;;4.90;;
23181;SDS011;11759;51.282;6.642;2022-08-19T13:10:44;7.50;;;4.90;;
23181;SDS011;11759;51.282;6.642;2022-08-19T13:13:11;6.60;;;4.53;;
23181;SDS011;11759;51.282;6.642;2022-08-19T13:15:41;6.00;;;4.40;;
23181;SDS011;11759;51.282;6.642;2022-08-19T13:18:08;7.50;;;4.55;;
23181;SDS011;11759;51.282;6.642;2022-08-19T13:20:37;6.40;;;4.30;;
23181;SDS011;11759;51.282;6.642;2022-08-19T13:23:04;7.75;;;4.57;;
23181;SDS011;11759;51.282;6.642;2022-08-19T13:25:31;8.35;;;4.07;;
23181;SDS011;11759;51.282;6.642;2022-08-19T13:27:59;6.38;;;4.55;;
23181;SDS011;11759;51.282;6.642;2022-08-19T13:30:25;9.32;;;4.53;;
23181;SDS011;11759;51.282;6.642;2022-08-19T13:33:11;11.75;;;4.75;;
23181;SDS011;11759;51.282;6.642;2022-08-19T13:35:38;6.68;;;4.32;;
23181;SDS011;11759;51.282;6.642;2022-08-19T13:38:06;8.57;;;4.75;;
23181;SDS011;11759;51.282;6.642;2022-08-19T13:40:37;9.40;;;4.60;;
23181;SDS011;11759;51.282;6.642;2022-08-19T13:43:06;8.30;;;4.40;;
23181;SDS011;11759;51.282;6.642;2022-08-19T13:45:52;6.97;;;4.47;;
23181;SDS011;11759;51.282;6.642;2022-08-19T13:48:21;6.57;;;3.92;;
23181;SDS011;11759;51.282;6.642;2022-08-19T13:50:49;8.95;;;4.10;;
23181;SDS011;11759;51.282;6.642;2022-08-19T13:53:16;6.93;;;3.70;;
23181;SDS011;11759;51.282;6.642;2022-08-19T13:55:43;6.28;;;3.90;;
23181;SDS011;11759;51.282;6.642;2022-08-19T13:58:10;8.45;;;3.95;;
23181;SDS011;11759;51.282;6.642;2022-08-19T14:00:42;9.10;;;4.10;;
23181;SDS011;11759;51.282;6.642;2022-08-19T14:03:10;8.57;;;4.13;;
23181;SDS011;11759;51.282;6.642;2022-08-19T14:05:37;7.20;;;4.07;;
23181;SDS011;11759;51.282;6.642;2022-08-19T14:08:04;6.03;;;3.95;;
23181;SDS011;11759;51.282;6.642;2022-08-19T14:10:31;5.25;;;3.67;;
23181;SDS011;11759;51.282;6.642;2022-08-19T14:12:59;10.32;;;4.00;;
23181;SDS011;11759;51.282;6.642;2022-08-19T14:15:27;8.48;;;3.90;;
23181;SDS011;11759;51.282;6.642;2022-08-19T14:17:54;7.22;;;3.83;;
23181;SDS011;11759;51.282;6.642;2022-08-19T14:20:21;9.48;;;5.05;;
23181;SDS011;11759;51.282;6.642;2022-08-19T14:22:52;11.27;;;4.53;;
23181;SDS011;11759;51.282;6.642;2022-08-19T14:25:20;9.70;;;5.57;;
23181;SDS011;11759;51.282;6.642;2022-08-19T14:27:48;7.72;;;3.92;;
23181;SDS011;11759;51.282;6.642;2022-08-19T14:30:22;7.75;;;4.30;;
23181;SDS011;11759;51.282;6.642;2022-08-19T14:32:53;7.00;;;3.83;;
23181;SDS011;11759;51.282;6.642;2022-08-19T14:35:21;6.85;;;3.25;;
23181;SDS011;11759;51.282;6.642;2022-08-19T14:37:48;10.02;;;3.55;;
23181;SDS011;11759;51.282;6.642;2022-08-19T14:40:17;5.93;;;3.47;;
23181;SDS011;11759;51.282;6.642;2022-08-19T14:42:46;5.25;;;3.45;;
23181;SDS011;11759;51.282;6.642;2022-08-19T14:45:14;10.57;;;4.18;;
23181;SDS011;11759;51.282;6.642;2022-08-19T14:47:41;6.13;;;3.65;;
23181;SDS011;11759;51.282;6.642;2022-08-19T14:50:10;9.48;;;3.85;;
23181;SDS011;11759;51.282;6.642;2022-08-19T14:52:44;5.43;;;3.58;;
23181;SDS011;11759;51.282;6.642;2022-08-19T14:55:11;7.15;;;3.88;;
23181;SDS011;11759;51.282;6.642;2022-08-19T14:57:39;6.50;;;4.20;;
23181;SDS011;11759;51.282;6.642;2022-08-19T15:00:07;7.03;;;4.00;;
23181;SDS011;11759;51.282;6.642;2022-08-19T15:02:39;9.00;;;4.32;;
23181;SDS011;11759;51.282;6.642;2022-08-19T15:05:14;8.35;;;4.78;;